Alexander Maersk — OZRC2 — position and weather

sailwx.info

Track history (hours):
 
Tides and Currents Weather Stations Pressure Air Temp Water Temp Dewpoint Dewpoint Depression Visibility Wind Speed Wind Dir Waves Ship Positions

Alexander Maersk

Last reported at 2017-Jun-28 10:51 UTC. Time now 2017-Jun-28 19:26 UTC.
Position N 33°14' E 015°08'.

Length 155 m; draft 8.9 m.

Type: Cargo ship. MMSI: 219470000.

Date/timePositionNaut miles runAvg speedWind from/ knotsBaromVisibWave heightAir tempDewpointWater temp
2017-Jun-28 10:51N 33°14' E 015°08'3 8.3
2017-Jun-28 10:30N 33°17' E 015°07'4 8.4
2017-Jun-28 10:00N 33°21' E 015°06'4 8.5
2017-Jun-28 09:30N 33°25' E 015°05'4 8.4
2017-Jun-28 08:59N 33°29' E 015°04'4 8.4
2017-Jun-28 08:30N 33°33' E 015°04'4 8.4
2017-Jun-28 07:59N 33°38' E 015°03'4 8.4
2017-Jun-28 07:30N 33°42' E 015°02'4 8.3
2017-Jun-28 07:00N 33°46' E 015°01'4 8.2
2017-Jun-28 06:30N 33°50' E 015°00'4 8.4
2017-Jun-28 06:00N 33°54' E 014°59'4 8.4
2017-Jun-28 05:30N 33°58' E 014°59'4 8.5
2017-Jun-28 05:00N 34°02' E 014°58'4 8.5
2017-Jun-28 04:30N 34°07' E 014°56'4 8.3
2017-Jun-28 04:00N 34°11' E 014°56'4 8.4
2017-Jun-28 03:30N 34°15' E 014°55'4 8.4
2017-Jun-28 03:00N 34°19' E 014°54'4 8.4
2017-Jun-28 02:29N 34°23' E 014°53'4 8.3
2017-Jun-28 02:00N 34°27' E 014°52'4 8.1
2017-Jun-28 01:30N 34°31' E 014°52'4 7.9
2017-Jun-28 01:00N 34°35' E 014°51'4 7.8
2017-Jun-28 00:30N 34°39' E 014°50'4 7.9
2017-Jun-28 00:00N 34°43' E 014°49'4 7.8
2017-Jun-27 23:30N 34°47' E 014°49'4 7.8
2017-Jun-27 23:00N 34°50' E 014°48'4 7.7
2017-Jun-27 22:30N 34°54' E 014°47'4 7.8
2017-Jun-27 22:00N 34°58' E 014°46'4 7.9
2017-Jun-27 21:30N 35°02' E 014°45'5 8.0
2017-Jun-27 20:50N 35°07' E 014°44'3 8.0
2017-Jun-27 20:26N 35°10' E 014°43'5 8.0
2017-Jun-27 19:50N 35°15' E 014°42'4 8.1
2017-Jun-27 19:21N 35°19' E 014°41'3 8.3
2017-Jun-27 19:00N 35°22' E 014°40'6 8.3
2017-Jun-27 18:20N 35°27' E 014°39'3 8.3
2017-Jun-27 18:00N 35°30' E 014°39'4 8.2
2017-Jun-27 17:30N 35°34' E 014°38'4 8.2
2017-Jun-27 17:00N 35°38' E 014°37'4 8.1
2017-Jun-27 16:30N 35°42' E 014°36'4 8.1
2017-Jun-27 16:00N 35°46' E 014°36'4 7.9
2017-Jun-27 15:30N 35°49' E 014°33'0 0.6
2017-Jun-27 14:55N 35°49' E 014°33'0 0.0
2017-Jun-27 13:58N 35°49' E 014°33'0 0.0
2017-Jun-27 13:25N 35°49' E 014°33'0 0.0
2017-Jun-27 12:58N 35°49' E 014°33'0 0.0
2017-Jun-27 12:28N 35°49' E 014°33'0 0.0
2017-Jun-27 11:58N 35°49' E 014°33'0 0.0
2017-Jun-27 11:28N 35°49' E 014°33'0 0.0
2017-Jun-27 10:58N 35°49' E 014°33'0 0.0
2017-Jun-27 10:28N 35°49' E 014°33'0 0.0
2017-Jun-27 09:55N 35°49' E 014°33'0 0.0
2017-Jun-27 09:25N 35°49' E 014°33'0 0.0
2017-Jun-27 08:55N 35°49' E 014°33'0 0.0
2017-Jun-27 08:28N 35°49' E 014°33'0 0.0
2017-Jun-27 07:58N 35°49' E 014°33'0 0.0
2017-Jun-27 07:28N 35°49' E 014°33'0 0.0
2017-Jun-27 06:58N 35°49' E 014°33'0 0.0
2017-Jun-27 06:28N 35°49' E 014°33'0 0.0
2017-Jun-27 05:58N 35°49' E 014°33'0 0.0
2017-Jun-27 05:28N 35°49' E 014°33'0 0.0
2017-Jun-27 04:58N 35°49' E 014°33'0 0.0
2017-Jun-27 04:28N 35°49' E 014°33'0 0.0
2017-Jun-27 03:58N 35°49' E 014°33'0 0.0
2017-Jun-27 03:28N 35°49' E 014°33'0 0.0
2017-Jun-27 01:49N 35°49' E 014°33'0 0.0
2017-Jun-27 01:25N 35°49' E 014°33'0 0.0
2017-Jun-27 00:58N 35°49' E 014°33'0 0.0
2017-Jun-27 00:25N 35°49' E 014°33'0 0.0
2017-Jun-26 23:58N 35°49' E 014°33'0 0.0
2017-Jun-26 23:28N 35°49' E 014°33'0 0.0
2017-Jun-26 22:55N 35°49' E 014°33'0 0.0
2017-Jun-26 22:28N 35°49' E 014°33'0 0.0
2017-Jun-26 21:58N 35°49' E 014°33'0 0.0
2017-Jun-26 21:28N 35°49' E 014°33'0 0.0
2017-Jun-26 20:58N 35°49' E 014°33'0 0.0
2017-Jun-26 20:28N 35°49' E 014°33'0 0.0
2017-Jun-26 19:55N 35°49' E 014°33'0 0.0
2017-Jun-26 19:28N 35°49' E 014°33'0 0.0
2017-Jun-26 18:58N 35°49' E 014°33'0 0.0
2017-Jun-26 18:28N 35°49' E 014°33'0 0.0
2017-Jun-26 17:58N 35°49' E 014°33'0 0.0
2017-Jun-26 17:28N 35°49' E 014°33'0 0.0
2017-Jun-26 16:52N 35°49' E 014°33'0 0.0
2017-Jun-26 16:28N 35°49' E 014°33'0 0.0
2017-Jun-26 15:58N 35°49' E 014°33'0 0.0
2017-Jun-26 15:28N 35°49' E 014°33'0 0.0
2017-Jun-26 14:58N 35°49' E 014°33'0 0.0
2017-Jun-26 14:25N 35°49' E 014°33'0 0.0
2017-Jun-26 13:28N 35°49' E 014°33'0 0.0
2017-Jun-26 12:52N 35°49' E 014°33'0 0.0
2017-Jun-26 12:25N 35°49' E 014°33'0 0.0
2017-Jun-26 11:55N 35°49' E 014°33'0 0.0
2017-Jun-26 11:16N 35°49' E 014°33'0 0.0
2017-Jun-26 10:52N 35°49' E 014°33'0 0.0
2017-Jun-26 09:16N 35°49' E 014°33'0 0.0
2017-Jun-26 08:52N 35°49' E 014°33'0 0.0
2017-Jun-26 08:28N 35°49' E 014°33'0 0.3
2017-Jun-26 08:00N 35°49' E 014°32'2 3.4
2017-Jun-26 07:30N 35°48' E 014°34'4 7.1
2017-Jun-26 07:00N 35°47' E 014°38'0 0.3
2017-Jun-26 06:30N 35°47' E 014°38'1 2.6
2017-Jun-26 06:00N 35°48' E 014°40'4 8.0
2017-Jun-26 05:30N 35°50' E 014°44'0 0.8
2017-Jun-26 04:59N 35°51' E 014°44'0 0.0
2017-Jun-26 04:28N 35°51' E 014°44'0 0.0
2017-Jun-26 03:58N 35°51' E 014°44'0 0.0
2017-Jun-26 03:25N 35°51' E 014°44'0 0.0
2017-Jun-26 02:58N 35°51' E 014°44'0 0.0
2017-Jun-26 02:28N 35°51' E 014°44'0 0.0
2017-Jun-26 01:58N 35°51' E 014°44'0 0.0
2017-Jun-26 01:28N 35°51' E 014°44'0 0.0
2017-Jun-26 00:58N 35°51' E 014°44'0 0.0
2017-Jun-26 00:28N 35°51' E 014°44'0 0.0
2017-Jun-25 23:55N 35°51' E 014°44'0 0.0
2017-Jun-25 23:28N 35°51' E 014°44'0 0.0
2017-Jun-25 22:58N 35°51' E 014°44'0 0.0
2017-Jun-25 22:28N 35°51' E 014°44'0 0.0
2017-Jun-25 21:58N 35°51' E 014°44'0 0.0
2017-Jun-25 21:28N 35°51' E 014°44'0 0.0
2017-Jun-25 20:58N 35°51' E 014°44'0 0.0
2017-Jun-25 20:28N 35°51' E 014°44'0 0.0
2017-Jun-25 19:58N 35°51' E 014°44'0 0.0
2017-Jun-25 19:28N 35°51' E 014°44'0 0.1
2017-Jun-25 18:55N 35°51' E 014°44'0 0.0
2017-Jun-25 18:28N 35°51' E 014°44'0 0.1
2017-Jun-25 18:00N 35°51' E 014°44'1 1.1
2017-Jun-25 17:30N 35°51' E 014°44'4 8.3
2017-Jun-25 17:00N 35°48' E 014°40'4 8.3
2017-Jun-25 16:30N 35°46' E 014°36'6 7.9
2017-Jun-25 15:45N 35°43' E 014°29'2 7.9
2017-Jun-25 15:29N 35°42' E 014°27'4 8.1
2017-Jun-25 15:00N 35°41' E 014°23'4 8.3
2017-Jun-25 14:30N 35°39' E 014°18'8 8.2
2017-Jun-25 13:30N 35°36' E 014°09'4 8.1
2017-Jun-25 13:00N 35°34' E 014°04'4 8.1
2017-Jun-25 12:30N 35°32' E 013°60'4 8.1
2017-Jun-25 12:00N 35°30' E 013°56'4 8.2
2017-Jun-25 11:30N 35°28' E 013°51'4 8.1
2017-Jun-25 11:00N 35°26' E 013°47'4 8.0
2017-Jun-25 10:30N 35°25' E 013°42'4 8.3
2017-Jun-25 10:00N 35°23' E 013°38'4 8.3
2017-Jun-25 09:30N 35°21' E 013°33'4 8.1
2017-Jun-25 09:00N 35°19' E 013°28'4 8.1
2017-Jun-25 08:30N 35°18' E 013°24'4 8.3
2017-Jun-25 08:00N 35°16' E 013°19'4 8.4
2017-Jun-25 07:30N 35°14' E 013°15'4 8.4
2017-Jun-25 07:00N 35°12' E 013°10'4 8.3
2017-Jun-25 06:30N 35°10' E 013°06'4 8.6
2017-Jun-25 06:00N 35°08' E 013°01'4 8.6
2017-Jun-25 05:30N 35°07' E 012°56'4 8.6
2017-Jun-25 05:00N 35°05' E 012°51'4 8.6
2017-Jun-25 04:30N 35°03' E 012°47'4 8.7
2017-Jun-25 04:00N 35°01' E 012°42'4 8.7
2017-Jun-25 03:30N 34°59' E 012°37'5 8.7
2017-Jun-25 02:55N 34°57' E 012°31'3 8.6
2017-Jun-25 02:30N 34°55' E 012°27'4 8.5
2017-Jun-25 02:00N 34°54' E 012°23'6 8.3
2017-Jun-25 01:14N 34°51' E 012°16'2 8.4
2017-Jun-25 01:00N 34°50' E 012°14'4 8.5
2017-Jun-25 00:30N 34°48' E 012°09'7 8.5
2017-Jun-24 23:39N 34°45' E 012°01'2 8.5
2017-Jun-24 23:29N 34°44' E 011°60'4 8.5
2017-Jun-24 23:00N 34°42' E 011°55'4 8.5
2017-Jun-24 22:30N 34°40' E 011°50'4 8.6
2017-Jun-24 22:00N 34°39' E 011°46'4 8.7
2017-Jun-24 21:30N 34°37' E 011°41'4 8.9
2017-Jun-24 21:00N 34°35' E 011°36'5 9.0
2017-Jun-24 20:27N 34°33' E 011°31'4 9.0
2017-Jun-24 20:00N 34°31' E 011°26'5 9.0
2017-Jun-24 19:28N 34°29' E 011°21'4 9.0
2017-Jun-24 19:00N 34°27' E 011°16'30 1.8
2017-Jun-24 02:17N 34°44' E 010°46'0 0.0
2017-Jun-24 00:38N 34°44' E 010°46'0 0.0
2017-Jun-23 14:32N 34°44' E 010°46'0 0.0
2017-Jun-23 12:50N 34°44' E 010°46'0 0.0
2017-Jun-23 12:29N 34°44' E 010°46'0 0.0
2017-Jun-23 11:59N 34°44' E 010°46'0 0.0
2017-Jun-23 10:56N 34°44' E 010°46'  
Track history (hours):
 
Tides and Currents Weather Stations Pressure Air Temp Water Temp Dewpoint Dewpoint Depression Visibility Wind Speed Wind Dir Waves Ship Positions

Alexander Maersk

Last reported at 2017-Jun-28 10:51 UTC. Time now 2017-Jun-28 19:26 UTC.
Position N 33°14' E 015°08'.

Length 155 m; draft 8.9 m.

Type: Cargo ship. MMSI: 219470000.

Date/timePositionNaut miles runAvg speedWind from/ knotsBaromVisibWave heightAir tempDewpointWater temp
2017-Jun-28 10:51N 33°14' E 015°08'3 8.3
2017-Jun-28 10:30N 33°17' E 015°07'4 8.4
2017-Jun-28 10:00N 33°21' E 015°06'4 8.5
2017-Jun-28 09:30N 33°25' E 015°05'4 8.4
2017-Jun-28 08:59N 33°29' E 015°04'4 8.4
2017-Jun-28 08:30N 33°33' E 015°04'4 8.4
2017-Jun-28 07:59N 33°38' E 015°03'4 8.4
2017-Jun-28 07:30N 33°42' E 015°02'4 8.3
2017-Jun-28 07:00N 33°46' E 015°01'4 8.2
2017-Jun-28 06:30N 33°50' E 015°00'4 8.4
2017-Jun-28 06:00N 33°54' E 014°59'4 8.4
2017-Jun-28 05:30N 33°58' E 014°59'4 8.5
2017-Jun-28 05:00N 34°02' E 014°58'4 8.5
2017-Jun-28 04:30N 34°07' E 014°56'4 8.3
2017-Jun-28 04:00N 34°11' E 014°56'4 8.4
2017-Jun-28 03:30N 34°15' E 014°55'4 8.4
2017-Jun-28 03:00N 34°19' E 014°54'4 8.4
2017-Jun-28 02:29N 34°23' E 014°53'4 8.3
2017-Jun-28 02:00N 34°27' E 014°52'4 8.1
2017-Jun-28 01:30N 34°31' E 014°52'4 7.9
2017-Jun-28 01:00N 34°35' E 014°51'4 7.8
2017-Jun-28 00:30N 34°39' E 014°50'4 7.9
2017-Jun-28 00:00N 34°43' E 014°49'4 7.8
2017-Jun-27 23:30N 34°47' E 014°49'4 7.8
2017-Jun-27 23:00N 34°50' E 014°48'4 7.7
2017-Jun-27 22:30N 34°54' E 014°47'4 7.8
2017-Jun-27 22:00N 34°58' E 014°46'4 7.9
2017-Jun-27 21:30N 35°02' E 014°45'5 8.0
2017-Jun-27 20:50N 35°07' E 014°44'3 8.0
2017-Jun-27 20:26N 35°10' E 014°43'5 8.0
2017-Jun-27 19:50N 35°15' E 014°42'4 8.1
2017-Jun-27 19:21N 35°19' E 014°41'3 8.3
2017-Jun-27 19:00N 35°22' E 014°40'6 8.3
2017-Jun-27 18:20N 35°27' E 014°39'3 8.3
2017-Jun-27 18:00N 35°30' E 014°39'4 8.2
2017-Jun-27 17:30N 35°34' E 014°38'4 8.2
2017-Jun-27 17:00N 35°38' E 014°37'4 8.1
2017-Jun-27 16:30N 35°42' E 014°36'4 8.1
2017-Jun-27 16:00N 35°46' E 014°36'4 7.9
2017-Jun-27 15:30N 35°49' E 014°33'0 0.6
2017-Jun-27 14:55N 35°49' E 014°33'0 0.0
2017-Jun-27 13:58N 35°49' E 014°33'0 0.0
2017-Jun-27 13:25N 35°49' E 014°33'0 0.0
2017-Jun-27 12:58N 35°49' E 014°33'0 0.0
2017-Jun-27 12:28N 35°49' E 014°33'0 0.0
2017-Jun-27 11:58N 35°49' E 014°33'0 0.0
2017-Jun-27 11:28N 35°49' E 014°33'0 0.0
2017-Jun-27 10:58N 35°49' E 014°33'0 0.0
2017-Jun-27 10:28N 35°49' E 014°33'0 0.0
2017-Jun-27 09:55N 35°49' E 014°33'0 0.0
2017-Jun-27 09:25N 35°49' E 014°33'0 0.0
2017-Jun-27 08:55N 35°49' E 014°33'0 0.0
2017-Jun-27 08:28N 35°49' E 014°33'0 0.0
2017-Jun-27 07:58N 35°49' E 014°33'0 0.0
2017-Jun-27 07:28N 35°49' E 014°33'0 0.0
2017-Jun-27 06:58N 35°49' E 014°33'0 0.0
2017-Jun-27 06:28N 35°49' E 014°33'0 0.0
2017-Jun-27 05:58N 35°49' E 014°33'0 0.0
2017-Jun-27 05:28N 35°49' E 014°33'0 0.0
2017-Jun-27 04:58N 35°49' E 014°33'0 0.0
2017-Jun-27 04:28N 35°49' E 014°33'0 0.0
2017-Jun-27 03:58N 35°49' E 014°33'0 0.0
2017-Jun-27 03:28N 35°49' E 014°33'0 0.0
2017-Jun-27 01:49N 35°49' E 014°33'0 0.0
2017-Jun-27 01:25N 35°49' E 014°33'0 0.0
2017-Jun-27 00:58N 35°49' E 014°33'0 0.0
2017-Jun-27 00:25N 35°49' E 014°33'0 0.0
2017-Jun-26 23:58N 35°49' E 014°33'0 0.0
2017-Jun-26 23:28N 35°49' E 014°33'0 0.0
2017-Jun-26 22:55N 35°49' E 014°33'0 0.0
2017-Jun-26 22:28N 35°49' E 014°33'0 0.0
2017-Jun-26 21:58N 35°49' E 014°33'0 0.0
2017-Jun-26 21:28N 35°49' E 014°33'0 0.0
2017-Jun-26 20:58N 35°49' E 014°33'0 0.0
2017-Jun-26 20:28N 35°49' E 014°33'0 0.0
2017-Jun-26 19:55N 35°49' E 014°33'0 0.0
2017-Jun-26 19:28N 35°49' E 014°33'0 0.0
2017-Jun-26 18:58N 35°49' E 014°33'0 0.0
2017-Jun-26 18:28N 35°49' E 014°33'0 0.0
2017-Jun-26 17:58N 35°49' E 014°33'0 0.0
2017-Jun-26 17:28N 35°49' E 014°33'0 0.0
2017-Jun-26 16:52N 35°49' E 014°33'0 0.0
2017-Jun-26 16:28N 35°49' E 014°33'0 0.0
2017-Jun-26 15:58N 35°49' E 014°33'0 0.0
2017-Jun-26 15:28N 35°49' E 014°33'0 0.0
2017-Jun-26 14:58N 35°49' E 014°33'0 0.0
2017-Jun-26 14:25N 35°49' E 014°33'0 0.0
2017-Jun-26 13:28N 35°49' E 014°33'0 0.0
2017-Jun-26 12:52N 35°49' E 014°33'0 0.0
2017-Jun-26 12:25N 35°49' E 014°33'0 0.0
2017-Jun-26 11:55N 35°49' E 014°33'0 0.0
2017-Jun-26 11:16N 35°49' E 014°33'0 0.0
2017-Jun-26 10:52N 35°49' E 014°33'0 0.0
2017-Jun-26 09:16N 35°49' E 014°33'0 0.0
2017-Jun-26 08:52N 35°49' E 014°33'0 0.0
2017-Jun-26 08:28N 35°49' E 014°33'0 0.3
2017-Jun-26 08:00N 35°49' E 014°32'2 3.4
2017-Jun-26 07:30N 35°48' E 014°34'4 7.1
2017-Jun-26 07:00N 35°47' E 014°38'0 0.3
2017-Jun-26 06:30N 35°47' E 014°38'1 2.6
2017-Jun-26 06:00N 35°48' E 014°40'4 8.0
2017-Jun-26 05:30N 35°50' E 014°44'0 0.8
2017-Jun-26 04:59N 35°51' E 014°44'0 0.0
2017-Jun-26 04:28N 35°51' E 014°44'0 0.0
2017-Jun-26 03:58N 35°51' E 014°44'0 0.0
2017-Jun-26 03:25N 35°51' E 014°44'0 0.0
2017-Jun-26 02:58N 35°51' E 014°44'0 0.0
2017-Jun-26 02:28N 35°51' E 014°44'0 0.0
2017-Jun-26 01:58N 35°51' E 014°44'0 0.0
2017-Jun-26 01:28N 35°51' E 014°44'0 0.0
2017-Jun-26 00:58N 35°51' E 014°44'0 0.0
2017-Jun-26 00:28N 35°51' E 014°44'0 0.0
2017-Jun-25 23:55N 35°51' E 014°44'0 0.0
2017-Jun-25 23:28N 35°51' E 014°44'0 0.0
2017-Jun-25 22:58N 35°51' E 014°44'0 0.0
2017-Jun-25 22:28N 35°51' E 014°44'0 0.0
2017-Jun-25 21:58N 35°51' E 014°44'0 0.0
2017-Jun-25 21:28N 35°51' E 014°44'0 0.0
2017-Jun-25 20:58N 35°51' E 014°44'0 0.0
2017-Jun-25 20:28N 35°51' E 014°44'0 0.0
2017-Jun-25 19:58N 35°51' E 014°44'0 0.0
2017-Jun-25 19:28N 35°51' E 014°44'0 0.1
2017-Jun-25 18:55N 35°51' E 014°44'0 0.0
2017-Jun-25 18:28N 35°51' E 014°44'0 0.1
2017-Jun-25 18:00N 35°51' E 014°44'1 1.1
2017-Jun-25 17:30N 35°51' E 014°44'4 8.3
2017-Jun-25 17:00N 35°48' E 014°40'4 8.3
2017-Jun-25 16:30N 35°46' E 014°36'6 7.9
2017-Jun-25 15:45N 35°43' E 014°29'2 7.9
2017-Jun-25 15:29N 35°42' E 014°27'4 8.1
2017-Jun-25 15:00N 35°41' E 014°23'4 8.3
2017-Jun-25 14:30N 35°39' E 014°18'8 8.2
2017-Jun-25 13:30N 35°36' E 014°09'4 8.1
2017-Jun-25 13:00N 35°34' E 014°04'4 8.1
2017-Jun-25 12:30N 35°32' E 013°60'4 8.1
2017-Jun-25 12:00N 35°30' E 013°56'4 8.2
2017-Jun-25 11:30N 35°28' E 013°51'4 8.1
2017-Jun-25 11:00N 35°26' E 013°47'4 8.0
2017-Jun-25 10:30N 35°25' E 013°42'4 8.3
2017-Jun-25 10:00N 35°23' E 013°38'4 8.3
2017-Jun-25 09:30N 35°21' E 013°33'4 8.1
2017-Jun-25 09:00N 35°19' E 013°28'4 8.1
2017-Jun-25 08:30N 35°18' E 013°24'4 8.3
2017-Jun-25 08:00N 35°16' E 013°19'4 8.4
2017-Jun-25 07:30N 35°14' E 013°15'4 8.4
2017-Jun-25 07:00N 35°12' E 013°10'4 8.3
2017-Jun-25 06:30N 35°10' E 013°06'4 8.6
2017-Jun-25 06:00N 35°08' E 013°01'4 8.6
2017-Jun-25 05:30N 35°07' E 012°56'4 8.6
2017-Jun-25 05:00N 35°05' E 012°51'4 8.6
2017-Jun-25 04:30N 35°03' E 012°47'4 8.7
2017-Jun-25 04:00N 35°01' E 012°42'4 8.7
2017-Jun-25 03:30N 34°59' E 012°37'5 8.7
2017-Jun-25 02:55N 34°57' E 012°31'3 8.6
2017-Jun-25 02:30N 34°55' E 012°27'4 8.5
2017-Jun-25 02:00N 34°54' E 012°23'6 8.3
2017-Jun-25 01:14N 34°51' E 012°16'2 8.4
2017-Jun-25 01:00N 34°50' E 012°14'4 8.5
2017-Jun-25 00:30N 34°48' E 012°09'7 8.5
2017-Jun-24 23:39N 34°45' E 012°01'2 8.5
2017-Jun-24 23:29N 34°44' E 011°60'4 8.5
2017-Jun-24 23:00N 34°42' E 011°55'4 8.5
2017-Jun-24 22:30N 34°40' E 011°50'4 8.6
2017-Jun-24 22:00N 34°39' E 011°46'4 8.7
2017-Jun-24 21:30N 34°37' E 011°41'4 8.9
2017-Jun-24 21:00N 34°35' E 011°36'5 9.0
2017-Jun-24 20:27N 34°33' E 011°31'4 9.0
2017-Jun-24 20:00N 34°31' E 011°26'5 9.0
2017-Jun-24 19:28N 34°29' E 011°21'4 9.0
2017-Jun-24 19:00N 34°27' E 011°16'30 1.8
2017-Jun-24 02:17N 34°44' E 010°46'0 0.0
2017-Jun-24 00:38N 34°44' E 010°46'0 0.0
2017-Jun-23 14:32N 34°44' E 010°46'0 0.0
2017-Jun-23 12:50N 34°44' E 010°46'0 0.0
2017-Jun-23 12:29N 34°44' E 010°46'0 0.0
2017-Jun-23 11:59N 34°44' E 010°46'0 0.0
2017-Jun-23 10:56N 34°44' E 010°46'  

Dump ship's entire track history